sensor_id;sensor_type;location;lat;lon;timestamp;P1;durP1;ratioP1;P2;durP2;ratioP2
80578;SDS011;69939;52.402;6.608;2024-02-14T00:01:18;1.88;;;1.55;;
80578;SDS011;69939;52.402;6.608;2024-02-14T00:03:48;1.33;;;0.90;;
80578;SDS011;69939;52.402;6.608;2024-02-14T00:08:48;1.33;;;1.23;;
80578;SDS011;69939;52.402;6.608;2024-02-14T00:11:24;1.58;;;1.45;;
80578;SDS011;69939;52.402;6.608;2024-02-14T00:14:00;3.50;;;2.67;;
80578;SDS011;69939;52.402;6.608;2024-02-14T00:16:29;1.00;;;0.93;;
80578;SDS011;69939;52.402;6.608;2024-02-14T00:21:28;3.67;;;2.70;;
80578;SDS011;69939;52.402;6.608;2024-02-14T00:23:59;2.33;;;1.75;;
80578;SDS011;69939;52.402;6.608;2024-02-14T00:26:39;3.20;;;1.98;;
80578;SDS011;69939;52.402;6.608;2024-02-14T00:29:09;3.88;;;3.45;;
80578;SDS011;69939;52.402;6.608;2024-02-14T00:34:09;5.28;;;2.97;;
80578;SDS011;69939;52.402;6.608;2024-02-14T00:36:39;2.33;;;1.98;;
80578;SDS011;69939;52.402;6.608;2024-02-14T00:41:41;2.95;;;2.53;;
80578;SDS011;69939;52.402;6.608;2024-02-14T00:44:10;5.80;;;2.17;;
80578;SDS011;69939;52.402;6.608;2024-02-14T00:46:42;3.03;;;2.60;;
80578;SDS011;69939;52.402;6.608;2024-02-14T00:49:11;2.65;;;2.13;;
80578;SDS011;69939;52.402;6.608;2024-02-14T00:51:41;4.07;;;1.70;;
80578;SDS011;69939;52.402;6.608;2024-02-14T00:54:20;2.60;;;1.58;;
80578;SDS011;69939;52.402;6.608;2024-02-14T00:56:50;2.22;;;1.75;;
80578;SDS011;69939;52.402;6.608;2024-02-14T00:59:19;1.52;;;1.23;;
80578;SDS011;69939;52.402;6.608;2024-02-14T01:01:50;2.83;;;2.10;;
80578;SDS011;69939;52.402;6.608;2024-02-14T01:04:19;1.02;;;0.43;;
80578;SDS011;69939;52.402;6.608;2024-02-14T01:09:21;4.10;;;2.35;;
80578;SDS011;69939;52.402;6.608;2024-02-14T01:11:53;0.82;;;0.80;;
80578;SDS011;69939;52.402;6.608;2024-02-14T01:14:22;1.15;;;0.70;;
80578;SDS011;69939;52.402;6.608;2024-02-14T01:16:52;1.10;;;0.90;;
80578;SDS011;69939;52.402;6.608;2024-02-14T01:19:22;2.75;;;1.48;;
80578;SDS011;69939;52.402;6.608;2024-02-14T01:21:53;0.55;;;0.55;;
80578;SDS011;69939;52.402;6.608;2024-02-14T01:24:26;1.73;;;1.48;;
80578;SDS011;69939;52.402;6.608;2024-02-14T01:26:55;2.15;;;1.17;;
80578;SDS011;69939;52.402;6.608;2024-02-14T01:31:54;0.57;;;0.57;;
80578;SDS011;69939;52.402;6.608;2024-02-14T01:34:23;1.90;;;0.98;;
80578;SDS011;69939;52.402;6.608;2024-02-14T01:36:53;0.75;;;0.75;;
80578;SDS011;69939;52.402;6.608;2024-02-14T01:41:54;0.85;;;0.60;;
80578;SDS011;69939;52.402;6.608;2024-02-14T01:44:24;5.68;;;1.20;;
80578;SDS011;69939;52.402;6.608;2024-02-14T01:46:53;1.95;;;1.48;;
80578;SDS011;69939;52.402;6.608;2024-02-14T01:49:28;0.43;;;0.43;;
80578;SDS011;69939;52.402;6.608;2024-02-14T01:51:59;1.27;;;0.88;;
80578;SDS011;69939;52.402;6.608;2024-02-14T01:54:31;1.27;;;1.00;;
80578;SDS011;69939;52.402;6.608;2024-02-14T01:57:03;1.92;;;1.20;;
80578;SDS011;69939;52.402;6.608;2024-02-14T01:59:36;0.25;;;0.20;;
80578;SDS011;69939;52.402;6.608;2024-02-14T02:02:07;0.73;;;0.73;;
80578;SDS011;69939;52.402;6.608;2024-02-14T02:04:40;1.70;;;1.10;;
80578;SDS011;69939;52.402;6.608;2024-02-14T02:07:11;0.30;;;0.30;;
80578;SDS011;69939;52.402;6.608;2024-02-14T02:09:44;1.55;;;1.10;;
80578;SDS011;69939;52.402;6.608;2024-02-14T02:12:15;2.88;;;1.90;;
80578;SDS011;69939;52.402;6.608;2024-02-14T02:17:17;2.83;;;1.80;;
80578;SDS011;69939;52.402;6.608;2024-02-14T02:19:52;1.13;;;1.08;;
80578;SDS011;69939;52.402;6.608;2024-02-14T02:22:27;2.55;;;1.33;;
80578;SDS011;69939;52.402;6.608;2024-02-14T02:25:06;1.55;;;1.42;;
80578;SDS011;69939;52.402;6.608;2024-02-14T02:27:42;3.83;;;1.48;;
80578;SDS011;69939;52.402;6.608;2024-02-14T02:30:26;1.20;;;1.10;;
80578;SDS011;69939;52.402;6.608;2024-02-14T02:33:00;2.05;;;1.05;;
80578;SDS011;69939;52.402;6.608;2024-02-14T02:38:10;1.40;;;0.57;;
80578;SDS011;69939;52.402;6.608;2024-02-14T02:40:48;0.82;;;0.80;;
80578;SDS011;69939;52.402;6.608;2024-02-14T02:43:32;1.75;;;1.50;;
80578;SDS011;69939;52.402;6.608;2024-02-14T02:46:15;0.85;;;0.77;;
80578;SDS011;69939;52.402;6.608;2024-02-14T02:49:13;2.33;;;2.00;;
80578;SDS011;69939;52.402;6.608;2024-02-14T02:51:54;2.05;;;1.25;;
80578;SDS011;69939;52.402;6.608;2024-02-14T02:54:25;2.35;;;1.58;;
80578;SDS011;69939;52.402;6.608;2024-02-14T02:57:01;2.63;;;1.70;;
80578;SDS011;69939;52.402;6.608;2024-02-14T02:59:33;1.70;;;1.08;;
80578;SDS011;69939;52.402;6.608;2024-02-14T03:02:07;3.25;;;2.03;;
80578;SDS011;69939;52.402;6.608;2024-02-14T03:04:37;3.13;;;1.95;;
80578;SDS011;69939;52.402;6.608;2024-02-14T03:07:10;3.28;;;1.63;;
80578;SDS011;69939;52.402;6.608;2024-02-14T03:09:39;1.80;;;1.55;;
80578;SDS011;69939;52.402;6.608;2024-02-14T03:12:09;2.05;;;1.80;;
80578;SDS011;69939;52.402;6.608;2024-02-14T03:14:41;2.70;;;1.52;;
80578;SDS011;69939;52.402;6.608;2024-02-14T03:17:11;0.77;;;0.75;;
80578;SDS011;69939;52.402;6.608;2024-02-14T03:19:40;1.95;;;1.42;;
80578;SDS011;69939;52.402;6.608;2024-02-14T03:22:15;3.58;;;2.10;;
80578;SDS011;69939;52.402;6.608;2024-02-14T03:24:44;2.65;;;2.13;;
80578;SDS011;69939;52.402;6.608;2024-02-14T03:27:14;0.70;;;0.57;;
80578;SDS011;69939;52.402;6.608;2024-02-14T03:29:48;3.10;;;1.88;;
80578;SDS011;69939;52.402;6.608;2024-02-14T03:32:20;1.58;;;1.27;;
80578;SDS011;69939;52.402;6.608;2024-02-14T03:34:51;3.15;;;2.85;;
80578;SDS011;69939;52.402;6.608;2024-02-14T03:37:23;3.03;;;1.83;;
80578;SDS011;69939;52.402;6.608;2024-02-14T03:39:53;1.00;;;0.95;;
80578;SDS011;69939;52.402;6.608;2024-02-14T03:42:28;1.05;;;0.88;;
80578;SDS011;69939;52.402;6.608;2024-02-14T03:44:58;2.47;;;2.03;;
80578;SDS011;69939;52.402;6.608;2024-02-14T03:47:31;2.08;;;1.88;;
80578;SDS011;69939;52.402;6.608;2024-02-14T03:50:00;2.65;;;2.33;;
80578;SDS011;69939;52.402;6.608;2024-02-14T03:52:31;2.25;;;1.90;;
80578;SDS011;69939;52.402;6.608;2024-02-14T03:55:00;0.50;;;0.50;;
80578;SDS011;69939;52.402;6.608;2024-02-14T03:57:34;1.77;;;1.67;;
80578;SDS011;69939;52.402;6.608;2024-02-14T04:00:04;2.85;;;1.88;;
80578;SDS011;69939;52.402;6.608;2024-02-14T04:02:41;3.03;;;2.42;;
80578;SDS011;69939;52.402;6.608;2024-02-14T04:05:11;2.75;;;2.25;;
80578;SDS011;69939;52.402;6.608;2024-02-14T04:10:14;3.08;;;2.60;;
80578;SDS011;69939;52.402;6.608;2024-02-14T04:12:44;1.77;;;1.15;;
80578;SDS011;69939;52.402;6.608;2024-02-14T04:17:48;1.20;;;1.02;;
80578;SDS011;69939;52.402;6.608;2024-02-14T04:20:18;2.53;;;1.55;;
80578;SDS011;69939;52.402;6.608;2024-02-14T04:22:48;1.45;;;1.35;;
80578;SDS011;69939;52.402;6.608;2024-02-14T04:25:17;3.30;;;2.17;;
80578;SDS011;69939;52.402;6.608;2024-02-14T04:30:16;1.25;;;1.15;;
80578;SDS011;69939;52.402;6.608;2024-02-14T04:32:48;1.05;;;0.95;;
80578;SDS011;69939;52.402;6.608;2024-02-14T04:35:19;0.90;;;0.90;;
80578;SDS011;69939;52.402;6.608;2024-02-14T04:37:49;2.28;;;1.58;;
80578;SDS011;69939;52.402;6.608;2024-02-14T04:42:47;2.95;;;2.28;;
80578;SDS011;69939;52.402;6.608;2024-02-14T04:45:17;4.95;;;1.98;;
80578;SDS011;69939;52.402;6.608;2024-02-14T04:47:49;3.38;;;2.03;;
80578;SDS011;69939;52.402;6.608;2024-02-14T04:50:19;1.55;;;1.30;;
80578;SDS011;69939;52.402;6.608;2024-02-14T04:52:48;1.00;;;0.70;;
80578;SDS011;69939;52.402;6.608;2024-02-14T04:55:17;2.17;;;1.83;;
80578;SDS011;69939;52.402;6.608;2024-02-14T04:57:47;3.80;;;1.55;;
80578;SDS011;69939;52.402;6.608;2024-02-14T05:02:46;1.05;;;1.05;;
80578;SDS011;69939;52.402;6.608;2024-02-14T05:05:18;1.13;;;1.05;;
80578;SDS011;69939;52.402;6.608;2024-02-14T05:07:48;1.02;;;0.93;;
80578;SDS011;69939;52.402;6.608;2024-02-14T05:10:18;2.28;;;1.67;;
80578;SDS011;69939;52.402;6.608;2024-02-14T05:12:48;1.65;;;1.55;;
80578;SDS011;69939;52.402;6.608;2024-02-14T05:17:46;2.38;;;2.03;;
80578;SDS011;69939;52.402;6.608;2024-02-14T05:20:18;2.75;;;1.70;;
80578;SDS011;69939;52.402;6.608;2024-02-14T05:22:48;2.38;;;1.60;;
80578;SDS011;69939;52.402;6.608;2024-02-14T05:25:17;2.67;;;1.85;;
80578;SDS011;69939;52.402;6.608;2024-02-14T05:27:47;3.53;;;2.30;;
80578;SDS011;69939;52.402;6.608;2024-02-14T05:30:17;5.28;;;2.15;;
80578;SDS011;69939;52.402;6.608;2024-02-14T05:32:49;0.80;;;0.75;;
80578;SDS011;69939;52.402;6.608;2024-02-14T05:35:19;1.98;;;1.38;;
80578;SDS011;69939;52.402;6.608;2024-02-14T05:37:50;0.00;;;0.00;;
80578;SDS011;69939;52.402;6.608;2024-02-14T05:40:19;0.05;;;0.05;;
80578;SDS011;69939;52.402;6.608;2024-02-14T05:42:49;0.00;;;0.00;;
80578;SDS011;69939;52.402;6.608;2024-02-14T05:45:18;0.00;;;0.00;;
80578;SDS011;69939;52.402;6.608;2024-02-14T05:47:51;0.00;;;0.00;;
80578;SDS011;69939;52.402;6.608;2024-02-14T05:50:21;0.00;;;0.00;;
80578;SDS011;69939;52.402;6.608;2024-02-14T05:52:50;0.00;;;0.00;;
80578;SDS011;69939;52.402;6.608;2024-02-14T05:57:49;0.00;;;0.00;;
80578;SDS011;69939;52.402;6.608;2024-02-14T06:00:24;0.00;;;0.00;;
80578;SDS011;69939;52.402;6.608;2024-02-14T06:02:54;0.45;;;0.20;;
80578;SDS011;69939;52.402;6.608;2024-02-14T06:07:53;0.00;;;0.00;;
80578;SDS011;69939;52.402;6.608;2024-02-14T06:10:22;0.40;;;0.40;;
80578;SDS011;69939;52.402;6.608;2024-02-14T06:12:52;0.10;;;0.10;;
80578;SDS011;69939;52.402;6.608;2024-02-14T06:17:53;0.90;;;0.90;;
80578;SDS011;69939;52.402;6.608;2024-02-14T06:20:23;0.45;;;0.45;;
80578;SDS011;69939;52.402;6.608;2024-02-14T06:25:21;0.30;;;0.30;;
80578;SDS011;69939;52.402;6.608;2024-02-14T06:30:20;0.13;;;0.13;;
80578;SDS011;69939;52.402;6.608;2024-02-14T06:32:55;0.00;;;0.00;;
80578;SDS011;69939;52.402;6.608;2024-02-14T06:35:25;0.20;;;0.20;;
80578;SDS011;69939;52.402;6.608;2024-02-14T06:37:58;0.00;;;0.00;;
80578;SDS011;69939;52.402;6.608;2024-02-14T06:40:27;0.00;;;0.00;;
80578;SDS011;69939;52.402;6.608;2024-02-14T06:42:56;0.05;;;0.05;;
80578;SDS011;69939;52.402;6.608;2024-02-14T06:45:32;0.15;;;0.15;;
80578;SDS011;69939;52.402;6.608;2024-02-14T06:48:02;0.35;;;0.35;;
80578;SDS011;69939;52.402;6.608;2024-02-14T06:50:34;0.32;;;0.32;;
80578;SDS011;69939;52.402;6.608;2024-02-14T06:53:04;0.30;;;0.30;;
80578;SDS011;69939;52.402;6.608;2024-02-14T06:58:02;0.00;;;0.00;;
80578;SDS011;69939;52.402;6.608;2024-02-14T07:00:41;0.22;;;0.22;;
80578;SDS011;69939;52.402;6.608;2024-02-14T07:03:10;0.10;;;0.10;;
80578;SDS011;69939;52.402;6.608;2024-02-14T07:08:09;0.10;;;0.10;;
80578;SDS011;69939;52.402;6.608;2024-02-14T07:10:38;0.03;;;0.03;;
80578;SDS011;69939;52.402;6.608;2024-02-14T07:15:37;0.20;;;0.20;;
80578;SDS011;69939;52.402;6.608;2024-02-14T07:18:12;0.00;;;0.00;;
80578;SDS011;69939;52.402;6.608;2024-02-14T07:20:41;0.00;;;0.00;;
80578;SDS011;69939;52.402;6.608;2024-02-14T07:23:11;0.43;;;0.43;;
80578;SDS011;69939;52.402;6.608;2024-02-14T07:28:10;0.15;;;0.15;;
80578;SDS011;69939;52.402;6.608;2024-02-14T07:30:39;0.05;;;0.05;;
80578;SDS011;69939;52.402;6.608;2024-02-14T07:35:41;0.00;;;0.00;;
80578;SDS011;69939;52.402;6.608;2024-02-14T07:38:19;0.43;;;0.43;;
80578;SDS011;69939;52.402;6.608;2024-02-14T07:40:48;0.22;;;0.22;;
80578;SDS011;69939;52.402;6.608;2024-02-14T07:43:17;0.00;;;0.00;;
80578;SDS011;69939;52.402;6.608;2024-02-14T07:45:47;0.30;;;0.30;;
80578;SDS011;69939;52.402;6.608;2024-02-14T07:48:16;0.20;;;0.20;;
80578;SDS011;69939;52.402;6.608;2024-02-14T07:50:45;0.00;;;0.00;;
80578;SDS011;69939;52.402;6.608;2024-02-14T07:53:15;0.40;;;0.40;;
80578;SDS011;69939;52.402;6.608;2024-02-14T07:55:47;0.00;;;0.00;;
80578;SDS011;69939;52.402;6.608;2024-02-14T07:58:17;0.00;;;0.00;;
80578;SDS011;69939;52.402;6.608;2024-02-14T08:03:16;0.10;;;0.10;;
80578;SDS011;69939;52.402;6.608;2024-02-14T08:05:45;1.38;;;0.82;;
80578;SDS011;69939;52.402;6.608;2024-02-14T08:08:19;0.00;;;0.00;;
80578;SDS011;69939;52.402;6.608;2024-02-14T08:10:50;0.00;;;0.00;;
80578;SDS011;69939;52.402;6.608;2024-02-14T08:13:20;0.63;;;0.63;;
80578;SDS011;69939;52.402;6.608;2024-02-14T08:15:53;0.00;;;0.00;;
80578;SDS011;69939;52.402;6.608;2024-02-14T08:18:23;0.13;;;0.13;;
80578;SDS011;69939;52.402;6.608;2024-02-14T08:20:53;0.00;;;0.00;;
80578;SDS011;69939;52.402;6.608;2024-02-14T08:25:54;0.00;;;0.00;;
80578;SDS011;69939;52.402;6.608;2024-02-14T08:28:25;0.03;;;0.03;;
80578;SDS011;69939;52.402;6.608;2024-02-14T08:33:24;0.17;;;0.17;;
80578;SDS011;69939;52.402;6.608;2024-02-14T08:38:25;0.00;;;0.00;;
80578;SDS011;69939;52.402;6.608;2024-02-14T08:40:55;0.00;;;0.00;;
80578;SDS011;69939;52.402;6.608;2024-02-14T08:45:53;1.20;;;1.10;;
80578;SDS011;69939;52.402;6.608;2024-02-14T08:50:53;0.32;;;0.32;;
80578;SDS011;69939;52.402;6.608;2024-02-14T08:53:26;0.03;;;0.03;;
80578;SDS011;69939;52.402;6.608;2024-02-14T08:55:56;0.00;;;0.00;;
80578;SDS011;69939;52.402;6.608;2024-02-14T08:58:25;0.00;;;0.00;;
80578;SDS011;69939;52.402;6.608;2024-02-14T09:03:24;0.00;;;0.00;;
80578;SDS011;69939;52.402;6.608;2024-02-14T09:05:53;0.00;;;0.00;;
80578;SDS011;69939;52.402;6.608;2024-02-14T09:10:56;0.00;;;0.00;;
80578;SDS011;69939;52.402;6.608;2024-02-14T09:13:26;0.05;;;0.05;;
80578;SDS011;69939;52.402;6.608;2024-02-14T09:15:55;0.00;;;0.00;;
80578;SDS011;69939;52.402;6.608;2024-02-14T09:18:25;0.82;;;0.82;;
80578;SDS011;69939;52.402;6.608;2024-02-14T09:20:56;0.32;;;0.32;;
80578;SDS011;69939;52.402;6.608;2024-02-14T09:23:29;0.00;;;0.00;;
80578;SDS011;69939;52.402;6.608;2024-02-14T09:25:58;0.52;;;0.52;;
80578;SDS011;69939;52.402;6.608;2024-02-14T09:28:28;0.30;;;0.30;;
80578;SDS011;69939;52.402;6.608;2024-02-14T09:30:58;0.52;;;0.52;;
80578;SDS011;69939;52.402;6.608;2024-02-14T09:33:29;0.00;;;0.00;;
80578;SDS011;69939;52.402;6.608;2024-02-14T09:35:59;0.20;;;0.20;;
80578;SDS011;69939;52.402;6.608;2024-02-14T09:41:01;0.00;;;0.00;;
80578;SDS011;69939;52.402;6.608;2024-02-14T09:43:44;0.00;;;0.00;;
80578;SDS011;69939;52.402;6.608;2024-02-14T09:46:14;0.10;;;0.10;;
80578;SDS011;69939;52.402;6.608;2024-02-14T09:48:44;0.10;;;0.10;;
80578;SDS011;69939;52.402;6.608;2024-02-14T09:51:15;0.00;;;0.00;;
80578;SDS011;69939;52.402;6.608;2024-02-14T09:53:47;0.43;;;0.32;;
80578;SDS011;69939;52.402;6.608;2024-02-14T09:56:19;3.00;;;0.80;;
80578;SDS011;69939;52.402;6.608;2024-02-14T09:58:50;0.00;;;0.00;;
80578;SDS011;69939;52.402;6.608;2024-02-14T10:01:25;0.15;;;0.15;;
80578;SDS011;69939;52.402;6.608;2024-02-14T10:03:56;0.28;;;0.28;;
80578;SDS011;69939;52.402;6.608;2024-02-14T10:06:25;0.13;;;0.13;;
80578;SDS011;69939;52.402;6.608;2024-02-14T10:08:59;0.15;;;0.15;;
80578;SDS011;69939;52.402;6.608;2024-02-14T10:11:29;0.00;;;0.00;;
80578;SDS011;69939;52.402;6.608;2024-02-14T10:14:07;0.08;;;0.08;;
80578;SDS011;69939;52.402;6.608;2024-02-14T10:16:38;0.03;;;0.03;;
80578;SDS011;69939;52.402;6.608;2024-02-14T10:21:43;0.25;;;0.25;;
80578;SDS011;69939;52.402;6.608;2024-02-14T10:24:33;0.17;;;0.17;;
80578;SDS011;69939;52.402;6.608;2024-02-14T10:27:05;0.00;;;0.00;;
80578;SDS011;69939;52.402;6.608;2024-02-14T10:29:41;0.10;;;0.10;;
80578;SDS011;69939;52.402;6.608;2024-02-14T10:32:13;0.35;;;0.35;;
80578;SDS011;69939;52.402;6.608;2024-02-14T10:34:44;0.00;;;0.00;;
80578;SDS011;69939;52.402;6.608;2024-02-14T10:37:14;0.00;;;0.00;;
80578;SDS011;69939;52.402;6.608;2024-02-14T10:39:44;0.10;;;0.10;;
80578;SDS011;69939;52.402;6.608;2024-02-14T10:42:17;0.08;;;0.08;;
80578;SDS011;69939;52.402;6.608;2024-02-14T10:44:50;0.88;;;0.63;;
80578;SDS011;69939;52.402;6.608;2024-02-14T10:47:21;0.00;;;0.00;;
80578;SDS011;69939;52.402;6.608;2024-02-14T10:50:00;0.63;;;0.63;;
80578;SDS011;69939;52.402;6.608;2024-02-14T10:52:32;0.15;;;0.15;;
80578;SDS011;69939;52.402;6.608;2024-02-14T10:55:05;0.00;;;0.00;;
80578;SDS011;69939;52.402;6.608;2024-02-14T10:57:42;0.00;;;0.00;;
80578;SDS011;69939;52.402;6.608;2024-02-14T11:00:14;0.00;;;0.00;;
80578;SDS011;69939;52.402;6.608;2024-02-14T11:02:46;0.08;;;0.08;;
80578;SDS011;69939;52.402;6.608;2024-02-14T11:05:18;0.98;;;0.52;;
80578;SDS011;69939;52.402;6.608;2024-02-14T11:07:54;0.00;;;0.00;;
80578;SDS011;69939;52.402;6.608;2024-02-14T11:10:24;0.10;;;0.10;;
80578;SDS011;69939;52.402;6.608;2024-02-14T11:12:53;0.00;;;0.00;;
80578;SDS011;69939;52.402;6.608;2024-02-14T11:15:23;0.75;;;0.75;;
80578;SDS011;69939;52.402;6.608;2024-02-14T11:18:03;0.00;;;0.00;;
80578;SDS011;69939;52.402;6.608;2024-02-14T11:20:35;0.00;;;0.00;;
80578;SDS011;69939;52.402;6.608;2024-02-14T11:23:08;0.10;;;0.10;;
80578;SDS011;69939;52.402;6.608;2024-02-14T11:25:38;0.40;;;0.40;;
80578;SDS011;69939;52.402;6.608;2024-02-14T11:28:14;0.00;;;0.00;;
80578;SDS011;69939;52.402;6.608;2024-02-14T11:30:46;0.00;;;0.00;;
80578;SDS011;69939;52.402;6.608;2024-02-14T11:33:16;0.43;;;0.43;;
80578;SDS011;69939;52.402;6.608;2024-02-14T11:35:52;0.00;;;0.00;;
80578;SDS011;69939;52.402;6.608;2024-02-14T11:38:26;0.10;;;0.10;;
80578;SDS011;69939;52.402;6.608;2024-02-14T11:40:56;0.00;;;0.00;;
80578;SDS011;69939;52.402;6.608;2024-02-14T11:43:26;0.08;;;0.08;;
80578;SDS011;69939;52.402;6.608;2024-02-14T11:45:55;0.00;;;0.00;;
80578;SDS011;69939;52.402;6.608;2024-02-14T11:48:24;0.10;;;0.10;;
80578;SDS011;69939;52.402;6.608;2024-02-14T11:50:54;1.30;;;0.85;;
80578;SDS011;69939;52.402;6.608;2024-02-14T11:53:28;0.10;;;0.10;;
80578;SDS011;69939;52.402;6.608;2024-02-14T11:55:58;0.00;;;0.00;;
80578;SDS011;69939;52.402;6.608;2024-02-14T11:58:27;0.30;;;0.30;;
80578;SDS011;69939;52.402;6.608;2024-02-14T12:03:26;0.20;;;0.20;;
80578;SDS011;69939;52.402;6.608;2024-02-14T12:05:55;0.30;;;0.30;;
80578;SDS011;69939;52.402;6.608;2024-02-14T12:08:28;0.00;;;0.00;;
80578;SDS011;69939;52.402;6.608;2024-02-14T12:10:57;0.00;;;0.00;;
80578;SDS011;69939;52.402;6.608;2024-02-14T12:13:27;0.88;;;0.77;;
80578;SDS011;69939;52.402;6.608;2024-02-14T12:16:03;0.00;;;0.00;;
80578;SDS011;69939;52.402;6.608;2024-02-14T12:18:36;3.40;;;1.30;;
80578;SDS011;69939;52.402;6.608;2024-02-14T12:23:41;0.00;;;0.00;;
80578;SDS011;69939;52.402;6.608;2024-02-14T12:26:10;0.00;;;0.00;;
80578;SDS011;69939;52.402;6.608;2024-02-14T12:28:45;0.00;;;0.00;;
80578;SDS011;69939;52.402;6.608;2024-02-14T12:31:21;0.00;;;0.00;;
80578;SDS011;69939;52.402;6.608;2024-02-14T12:36:21;0.00;;;0.00;;
80578;SDS011;69939;52.402;6.608;2024-02-14T12:38:53;0.00;;;0.00;;
80578;SDS011;69939;52.402;6.608;2024-02-14T12:41:23;2.35;;;2.17;;
80578;SDS011;69939;52.402;6.608;2024-02-14T12:43:54;0.00;;;0.00;;
80578;SDS011;69939;52.402;6.608;2024-02-14T12:46:27;0.45;;;0.45;;
80578;SDS011;69939;52.402;6.608;2024-02-14T12:48:57;0.00;;;0.00;;
80578;SDS011;69939;52.402;6.608;2024-02-14T12:51:26;0.45;;;0.45;;
80578;SDS011;69939;52.402;6.608;2024-02-14T12:56:33;0.00;;;0.00;;
80578;SDS011;69939;52.402;6.608;2024-02-14T12:59:02;0.00;;;0.00;;
80578;SDS011;69939;52.402;6.608;2024-02-14T13:04:01;0.00;;;0.00;;
80578;SDS011;69939;52.402;6.608;2024-02-14T13:08:59;0.70;;;0.70;;
80578;SDS011;69939;52.402;6.608;2024-02-14T13:11:33;0.00;;;0.00;;
80578;SDS011;69939;52.402;6.608;2024-02-14T13:14:08;1.48;;;1.38;;
80578;SDS011;69939;52.402;6.608;2024-02-14T13:16:38;0.30;;;0.30;;
80578;SDS011;69939;52.402;6.608;2024-02-14T13:19:07;0.35;;;0.35;;
80578;SDS011;69939;52.402;6.608;2024-02-14T13:21:36;0.00;;;0.00;;
80578;SDS011;69939;52.402;6.608;2024-02-14T13:24:10;0.43;;;0.43;;
80578;SDS011;69939;52.402;6.608;2024-02-14T13:26:41;0.00;;;0.00;;
80578;SDS011;69939;52.402;6.608;2024-02-14T13:31:42;0.00;;;0.00;;
80578;SDS011;69939;52.402;6.608;2024-02-14T13:36:40;0.52;;;0.52;;
80578;SDS011;69939;52.402;6.608;2024-02-14T13:39:10;0.00;;;0.00;;
80578;SDS011;69939;52.402;6.608;2024-02-14T13:41:40;0.00;;;0.00;;
80578;SDS011;69939;52.402;6.608;2024-02-14T13:44:10;0.20;;;0.20;;
80578;SDS011;69939;52.402;6.608;2024-02-14T13:46:43;0.10;;;0.10;;
80578;SDS011;69939;52.402;6.608;2024-02-14T13:49:15;2.92;;;1.20;;
80578;SDS011;69939;52.402;6.608;2024-02-14T13:51:50;0.00;;;0.00;;
80578;SDS011;69939;52.402;6.608;2024-02-14T13:54:21;0.05;;;0.05;;
80578;SDS011;69939;52.402;6.608;2024-02-14T13:56:51;0.00;;;0.00;;
80578;SDS011;69939;52.402;6.608;2024-02-14T13:59:21;0.10;;;0.10;;
80578;SDS011;69939;52.402;6.608;2024-02-14T14:01:51;0.00;;;0.00;;
80578;SDS011;69939;52.402;6.608;2024-02-14T14:04:20;0.00;;;0.00;;
80578;SDS011;69939;52.402;6.608;2024-02-14T14:06:53;0.20;;;0.20;;
80578;SDS011;69939;52.402;6.608;2024-02-14T14:09:23;0.10;;;0.10;;
80578;SDS011;69939;52.402;6.608;2024-02-14T14:11:53;0.00;;;0.00;;
80578;SDS011;69939;52.402;6.608;2024-02-14T14:16:52;0.00;;;0.00;;
80578;SDS011;69939;52.402;6.608;2024-02-14T14:19:22;0.10;;;0.10;;
80578;SDS011;69939;52.402;6.608;2024-02-14T14:21:55;0.00;;;0.00;;
80578;SDS011;69939;52.402;6.608;2024-02-14T14:24:24;0.20;;;0.20;;
80578;SDS011;69939;52.402;6.608;2024-02-14T14:26:56;0.00;;;0.00;;
80578;SDS011;69939;52.402;6.608;2024-02-14T14:29:25;0.00;;;0.00;;
80578;SDS011;69939;52.402;6.608;2024-02-14T14:31:57;0.00;;;0.00;;
80578;SDS011;69939;52.402;6.608;2024-02-14T14:34:26;0.65;;;0.65;;
80578;SDS011;69939;52.402;6.608;2024-02-14T14:37:02;0.03;;;0.03;;
80578;SDS011;69939;52.402;6.608;2024-02-14T14:39:32;0.00;;;0.00;;
80578;SDS011;69939;52.402;6.608;2024-02-14T14:42:01;0.00;;;0.00;;
80578;SDS011;69939;52.402;6.608;2024-02-14T14:44:32;0.32;;;0.32;;
80578;SDS011;69939;52.402;6.608;2024-02-14T14:49:31;0.00;;;0.00;;
80578;SDS011;69939;52.402;6.608;2024-02-14T14:52:03;0.03;;;0.03;;
80578;SDS011;69939;52.402;6.608;2024-02-14T14:54:33;0.00;;;0.00;;
80578;SDS011;69939;52.402;6.608;2024-02-14T14:57:03;0.10;;;0.10;;
80578;SDS011;69939;52.402;6.608;2024-02-14T14:59:39;0.00;;;0.00;;
80578;SDS011;69939;52.402;6.608;2024-02-14T15:02:08;0.00;;;0.00;;
80578;SDS011;69939;52.402;6.608;2024-02-14T15:04:38;0.00;;;0.00;;
80578;SDS011;69939;52.402;6.608;2024-02-14T15:07:12;0.00;;;0.00;;
80578;SDS011;69939;52.402;6.608;2024-02-14T15:09:41;0.00;;;0.00;;
80578;SDS011;69939;52.402;6.608;2024-02-14T15:12:11;0.20;;;0.20;;
80578;SDS011;69939;52.402;6.608;2024-02-14T15:17:09;0.00;;;0.00;;
80578;SDS011;69939;52.402;6.608;2024-02-14T15:19:39;0.00;;;0.00;;
80578;SDS011;69939;52.402;6.608;2024-02-14T15:22:09;0.00;;;0.00;;
80578;SDS011;69939;52.402;6.608;2024-02-14T15:24:41;0.00;;;0.00;;
80578;SDS011;69939;52.402;6.608;2024-02-14T15:27:11;0.00;;;0.00;;
80578;SDS011;69939;52.402;6.608;2024-02-14T15:29:46;0.00;;;0.00;;
80578;SDS011;69939;52.402;6.608;2024-02-14T15:32:27;0.00;;;0.00;;
80578;SDS011;69939;52.402;6.608;2024-02-14T15:35:08;0.13;;;0.13;;
80578;SDS011;69939;52.402;6.608;2024-02-14T15:40:10;0.00;;;0.00;;
80578;SDS011;69939;52.402;6.608;2024-02-14T15:42:41;1.27;;;1.27;;
80578;SDS011;69939;52.402;6.608;2024-02-14T15:45:10;0.00;;;0.00;;
80578;SDS011;69939;52.402;6.608;2024-02-14T15:47:42;0.00;;;0.00;;
80578;SDS011;69939;52.402;6.608;2024-02-14T15:50:12;0.00;;;0.00;;
80578;SDS011;69939;52.402;6.608;2024-02-14T15:52:46;0.00;;;0.00;;
80578;SDS011;69939;52.402;6.608;2024-02-14T15:55:16;0.00;;;0.00;;
80578;SDS011;69939;52.402;6.608;2024-02-14T15:57:45;0.00;;;0.00;;
80578;SDS011;69939;52.402;6.608;2024-02-14T16:00:16;0.00;;;0.00;;
80578;SDS011;69939;52.402;6.608;2024-02-14T16:02:47;0.00;;;0.00;;
80578;SDS011;69939;52.402;6.608;2024-02-14T16:05:25;0.03;;;0.03;;
80578;SDS011;69939;52.402;6.608;2024-02-14T16:07:57;0.00;;;0.00;;
80578;SDS011;69939;52.402;6.608;2024-02-14T16:10:27;0.08;;;0.08;;
80578;SDS011;69939;52.402;6.608;2024-02-14T16:12:57;0.00;;;0.00;;
80578;SDS011;69939;52.402;6.608;2024-02-14T16:15:26;0.15;;;0.15;;
80578;SDS011;69939;52.402;6.608;2024-02-14T16:17:56;0.00;;;0.00;;
80578;SDS011;69939;52.402;6.608;2024-02-14T16:20:28;0.00;;;0.00;;
80578;SDS011;69939;52.402;6.608;2024-02-14T16:22:58;0.55;;;0.38;;
80578;SDS011;69939;52.402;6.608;2024-02-14T16:27:58;0.00;;;0.00;;
80578;SDS011;69939;52.402;6.608;2024-02-14T16:30:28;0.00;;;0.00;;
80578;SDS011;69939;52.402;6.608;2024-02-14T16:32:57;0.28;;;0.28;;
80578;SDS011;69939;52.402;6.608;2024-02-14T16:35:30;0.00;;;0.00;;
80578;SDS011;69939;52.402;6.608;2024-02-14T16:37:59;0.20;;;0.20;;
80578;SDS011;69939;52.402;6.608;2024-02-14T16:40:28;0.00;;;0.00;;
80578;SDS011;69939;52.402;6.608;2024-02-14T16:43:00;0.00;;;0.00;;
80578;SDS011;69939;52.402;6.608;2024-02-14T16:45:29;2.08;;;1.17;;
80578;SDS011;69939;52.402;6.608;2024-02-14T16:47:59;0.00;;;0.00;;
80578;SDS011;69939;52.402;6.608;2024-02-14T16:50:35;0.00;;;0.00;;
80578;SDS011;69939;52.402;6.608;2024-02-14T16:53:04;0.13;;;0.13;;
80578;SDS011;69939;52.402;6.608;2024-02-14T16:55:34;0.00;;;0.00;;
80578;SDS011;69939;52.402;6.608;2024-02-14T16:58:03;0.10;;;0.10;;
80578;SDS011;69939;52.402;6.608;2024-02-14T17:00:33;0.00;;;0.00;;
80578;SDS011;69939;52.402;6.608;2024-02-14T17:05:35;0.00;;;0.00;;
80578;SDS011;69939;52.402;6.608;2024-02-14T17:08:04;0.03;;;0.03;;
80578;SDS011;69939;52.402;6.608;2024-02-14T17:10:35;0.00;;;0.00;;
80578;SDS011;69939;52.402;6.608;2024-02-14T17:15:34;0.00;;;0.00;;
80578;SDS011;69939;52.402;6.608;2024-02-14T17:18:03;0.00;;;0.00;;